Hlavní strana
METAR-TAF:

METAR-TAF

Letiště :

Oberpfaffenhofen, Německo

zeměpisná šířka: 48-05N, zeměpisná délka: 011-17E, výška: 600 m

Aktuální stav počasí

Zpráva byla vytvořena před 52 minutami, v 20:20 UTC
Jihozápadní vítr 10 kt
Teplota 13°C
Vlhkost vzduchu 88%
Tlak 1008 hPa
Viditelnost 10 km a více

METAR: EDMO 302020Z AUTO 23010KT 9999 // FEW047/// BKN078/// OVC099/// 13/11 Q1008

Čas: 23:12 (21:12 UTC)

Předpověď počasí

Zpráva byla vytvořena před 12 hodinami a 2 minutami, v 09:10 UTC
Předpověď platná od 30 v 10 UTC do 30 v 18 UTC
Západojihozápadní vítr 12 kt
Viditelnost 10 km a více
Polojasno ve výšce 2000 ft
Oblačno až skoro zataženo ve výšce 4000 ft
Pravděpodobnost 40% :
Dočasný
od 30 v 12 UTC do 30 v 18 UTC
Polojasno ve výšce 1200 ft
Oblačno až skoro zataženo ve výšce 2000 ft, Cumulonimbus.
dešťové přeháňky
Změna
od 30 v 16 UTC do 30 v 18 UTC
Západojihozápadní vítr 5 kt

TAF: EDMO 300910Z 3010/3018 25012KT 9999 SCT020 BKN040 PROB40 TEMPO 3012/3018 SHRA SCT012 BKN020CB BECMG 3016/3018 24005KT

Stav a předpovědi počasí z více než 4 000 letišť (zprávy METAR a TAF).

Červené a žluté tečky na mapě představují dostupné meteorologické stanice.

Když kurzor umístíte na tečku, zobrazí se název stanice.

Pak kliknutím zobrazíte stav a předpověď počasí.

Chcete-li změnit mapu, kliknutím na zelené tlačítko se znaménkem +mapu přiblížíte, kliknutím na zelené tlačítko se znaménkem – mapu oddálíte a kliknutím na zelené šipky přejdete na sousední mapy.


METAR-TAF: